South Miami Heights, Florida
Current Conditions -  °F | °C
As of 5:53 AM on Saturday 25 Oct 2014 (Local Time) from KTMB Reporting Station
Clear Clear  
Wind Chill: 71°   Ceiling: Unl
Heat Index: 71°   Visibility: 10mi
Dew Point: 62°   Wind: 12mph
Humidity: 73%   Direction: 350°N
Pressure: 29.87"   Gusts: NA
Location:  25.6064°N, 80.3427°W
Report Text: KTMB 250953Z AUTO 35010KT 10SM CLR 22/17 A2987 RMK AO2 SLP115 T02170167
Loading
Personal Weather Stations






























Interactive Weather Map
Tropical Storm Tracking
New forecast layout! Learn more

10-Day Weather Forecast

Advertisements
Track Severe Weather on mobile